Morton S Bouchard Jr — WSE9678 — position and weather

sailwx.info

Track history (hours):
 
Tides and Currents Weather Stations Pressure Air Temp Water Temp Dewpoint Dewpoint Depression Visibility Wind Speed Wind Dir Waves Ship Positions

Morton S Bouchard Jr

Owner: BOUCHARD TRANSPORTATION CO INC, MELVILLE, NY. More information available from US FCC via Universal Licensing System and Coast Guard Vessel Documentation Center.

Last reported at 2017-Mar-24 05:33 UTC. Time now 2017-Mar-24 06:16 UTC.
Position N 40°46' W 073°57'.

Length 33 m; draft 5 m.

Type: Tug. MMSI: 367006550.

Date/timePositionNaut miles runAvg speedWind from/ knotsBaromVisibWave heightAir tempDewpointWater temp
2017-Mar-24 05:33N 40°46' W 073°57'8 7.7
2017-Mar-24 04:32N 40°48' W 073°47'8 0.3
2017-Mar-23 04:30N 40°46' W 073°57'5 5.8
2017-Mar-23 03:34N 40°41' W 074°01'4 4.1
2017-Mar-23 02:33N 40°39' W 074°05'5 4.9
2017-Mar-23 01:33N 40°38' W 074°12'5 4.5
2017-Mar-23 00:28N 40°33' W 074°13'1 0.6
2017-Mar-22 22:21N 40°33' W 074°15'0 0.5
2017-Mar-22 21:33N 40°33' W 074°15'7 7.4
2017-Mar-22 20:34N 40°39' W 074°10'2 2.0
2017-Mar-22 19:33N 40°39' W 074°07'0 0.0
2017-Mar-22 18:33N 40°39' W 074°07'0 0.0
2017-Mar-22 17:33N 40°39' W 074°07'0 0.0
2017-Mar-22 16:33N 40°39' W 074°07'0 0.0
2017-Mar-22 15:33N 40°39' W 074°07'0 0.0
2017-Mar-22 14:33N 40°39' W 074°07'3 3.4
2017-Mar-22 13:33N 40°38' W 074°12'6 5.9
2017-Mar-22 12:33N 40°33' W 074°15'3 3.2
2017-Mar-22 11:33N 40°35' W 074°12'5 5.2
2017-Mar-22 10:34N 40°39' W 074°07'3 3.2
2017-Mar-22 09:33N 40°39' W 074°03'2 1.6
2017-Mar-22 08:34N 40°40' W 074°03'6 5.9
2017-Mar-22 07:34N 40°45' W 073°58'6 6.1
2017-Mar-22 06:33N 40°48' W 073°51'4 0.2
2017-Mar-21 10:31N 40°50' W 073°46'6 6.4
2017-Mar-21 09:33N 40°48' W 073°54'8 7.7
2017-Mar-21 08:33N 40°42' W 074°00'8 7.9
2017-Mar-21 07:33N 40°39' W 074°09'7 6.9
2017-Mar-21 06:29N 40°33' W 074°15'0 0.3
2017-Mar-21 05:30N 40°33' W 074°15'0 0.0
2017-Mar-21 02:33N 40°33' W 074°15'3 2.7
2017-Mar-21 01:22N 40°35' W 074°12'0 0.0
2017-Mar-21 00:24N 40°35' W 074°12'3 4.1
2017-Mar-20 23:33N 40°33' W 074°15'0 0.2
2017-Mar-20 22:33N 40°33' W 074°15'0 0.1
2017-Mar-20 21:30N 40°33' W 074°15'0 0.1
2017-Mar-20 19:25N 40°33' W 074°15'  
2017-Mar-18 08:28N 40°32' W 074°15'8 8.5
2017-Mar-18 07:33N 40°39' W 074°10'8 7.7
2017-Mar-18 06:33N 40°41' W 074°00'0 0.1
2017-Mar-18 05:33N 40°41' W 074°00'0 0.1
2017-Mar-18 04:33N 40°41' W 074°00'0 0.0
2017-Mar-18 03:33N 40°41' W 074°00'0 0.0
2017-Mar-18 02:33N 40°41' W 074°00'6 5.8
2017-Mar-18 01:33N 40°39' W 074°07'0 0.2
2017-Mar-18 00:33N 40°39' W 074°07'0 0.0
2017-Mar-17 23:33N 40°39' W 074°07'0 0.0
2017-Mar-17 22:33N 40°39' W 074°07'0 0.0
2017-Mar-17 21:33N 40°39' W 074°07'0 0.1
2017-Mar-17 20:33N 40°39' W 074°07'4 3.9
2017-Mar-17 19:33N 40°40' W 074°02'3 2.9
2017-Mar-17 18:33N 40°42' W 073°60'7 7.3
2017-Mar-17 17:33N 40°48' W 073°54'7 6.5
2017-Mar-17 16:31N 40°51' W 073°46'46 5.6
2017-Mar-17 08:23N 41°07' W 072°49'5 5.8
2017-Mar-17 07:33N 41°07' W 072°43'7 7.0
2017-Mar-17 06:33N 41°09' W 072°33'9 9.1
2017-Mar-17 05:33N 41°11' W 072°22'1010.2
2017-Mar-17 04:33N 41°14' W 072°09'90 6.4
2017-Mar-16 14:33N 42°16' W 070°41'9 9.4
2017-Mar-16 13:33N 42°22' W 070°50'7 6.7
2017-Mar-16 12:34N 42°20' W 070°59'1 0.7
2017-Mar-16 11:33N 42°21' W 070°58'0 0.0
2017-Mar-16 10:33N 42°21' W 070°58'0 0.0
2017-Mar-16 09:33N 42°21' W 070°58'0 0.0
2017-Mar-16 08:33N 42°21' W 070°58'0 0.0
2017-Mar-16 07:33N 42°21' W 070°58'0 0.0
2017-Mar-16 06:33N 42°21' W 070°58'0 0.0
2017-Mar-16 05:33N 42°21' W 070°58'0 0.0
2017-Mar-16 04:33N 42°21' W 070°58'0 0.0
2017-Mar-16 03:33N 42°21' W 070°58'0 0.0
2017-Mar-16 02:33N 42°21' W 070°58'0 0.0
2017-Mar-16 01:33N 42°21' W 070°58'0 0.0
2017-Mar-16 00:33N 42°21' W 070°58'0 0.0
2017-Mar-15 23:33N 42°21' W 070°58'0 0.1
2017-Mar-15 22:33N 42°21' W 070°58'4 4.0
2017-Mar-15 21:33N 42°22' W 071°03'2 2.3
2017-Mar-15 20:33N 42°24' W 071°01'0 0.0
2017-Mar-15 19:33N 42°24' W 071°01'0 0.0
2017-Mar-15 18:33N 42°24' W 071°01'0 0.0
2017-Mar-15 17:33N 42°24' W 071°01'0 0.0
2017-Mar-15 16:33N 42°24' W 071°01'0 0.0
2017-Mar-15 15:33N 42°24' W 071°01'0 0.0
2017-Mar-15 14:33N 42°24' W 071°01'0 0.0
2017-Mar-15 13:33N 42°24' W 071°01'0 0.0
2017-Mar-15 12:33N 42°24' W 071°01'0 0.0
2017-Mar-15 11:33N 42°24' W 071°01'0 0.0
2017-Mar-15 10:33N 42°24' W 071°01'0 0.0
2017-Mar-15 09:33N 42°24' W 071°01'0 0.0
2017-Mar-15 08:33N 42°24' W 071°01'0 0.0
2017-Mar-15 07:33N 42°24' W 071°01'0 0.0
2017-Mar-15 06:33N 42°24' W 071°01'0 0.0
2017-Mar-15 05:33N 42°24' W 071°01'0 0.0
2017-Mar-15 04:33N 42°24' W 071°01'0 0.0
2017-Mar-15 03:25N 42°24' W 071°01'0 0.0
2017-Mar-15 02:33N 42°24' W 071°01'0 0.0
2017-Mar-15 01:33N 42°24' W 071°01'0 0.0
2017-Mar-15 00:33N 42°24' W 071°01'0 0.0
2017-Mar-14 23:33N 42°24' W 071°01'0 0.0
2017-Mar-14 22:33N 42°24' W 071°01'0 0.0
2017-Mar-14 21:33N 42°24' W 071°01'0 0.0
2017-Mar-14 20:33N 42°24' W 071°01'0 0.0
2017-Mar-14 19:32N 42°24' W 071°01'0 0.0
2017-Mar-14 18:33N 42°24' W 071°01'0 0.0
2017-Mar-14 17:33N 42°24' W 071°01'0 0.0
2017-Mar-14 16:33N 42°24' W 071°01'0 0.0
2017-Mar-14 15:33N 42°24' W 071°01'0 0.0
2017-Mar-14 14:33N 42°24' W 071°01'0 0.0
2017-Mar-14 13:33N 42°24' W 071°01'0 0.0
2017-Mar-14 12:33N 42°24' W 071°01'0 0.0
2017-Mar-14 11:33N 42°24' W 071°01'0 0.0
2017-Mar-14 10:33N 42°24' W 071°01'0 0.0
2017-Mar-14 09:33N 42°24' W 071°01'0 0.0
2017-Mar-14 08:33N 42°24' W 071°01'0 0.0
2017-Mar-14 07:33N 42°24' W 071°01'0 0.0
2017-Mar-14 06:33N 42°24' W 071°01'  
Track history (hours):
 
Tides and Currents Weather Stations Pressure Air Temp Water Temp Dewpoint Dewpoint Depression Visibility Wind Speed Wind Dir Waves Ship Positions

Morton S Bouchard Jr

Owner: BOUCHARD TRANSPORTATION CO INC, MELVILLE, NY. More information available from US FCC via Universal Licensing System and Coast Guard Vessel Documentation Center.

Last reported at 2017-Mar-24 05:33 UTC. Time now 2017-Mar-24 06:16 UTC.
Position N 40°46' W 073°57'.

Length 33 m; draft 5 m.

Type: Tug. MMSI: 367006550.

Date/timePositionNaut miles runAvg speedWind from/ knotsBaromVisibWave heightAir tempDewpointWater temp
2017-Mar-24 05:33N 40°46' W 073°57'8 7.7
2017-Mar-24 04:32N 40°48' W 073°47'8 0.3
2017-Mar-23 04:30N 40°46' W 073°57'5 5.8
2017-Mar-23 03:34N 40°41' W 074°01'4 4.1
2017-Mar-23 02:33N 40°39' W 074°05'5 4.9
2017-Mar-23 01:33N 40°38' W 074°12'5 4.5
2017-Mar-23 00:28N 40°33' W 074°13'1 0.6
2017-Mar-22 22:21N 40°33' W 074°15'0 0.5
2017-Mar-22 21:33N 40°33' W 074°15'7 7.4
2017-Mar-22 20:34N 40°39' W 074°10'2 2.0
2017-Mar-22 19:33N 40°39' W 074°07'0 0.0
2017-Mar-22 18:33N 40°39' W 074°07'0 0.0
2017-Mar-22 17:33N 40°39' W 074°07'0 0.0
2017-Mar-22 16:33N 40°39' W 074°07'0 0.0
2017-Mar-22 15:33N 40°39' W 074°07'0 0.0
2017-Mar-22 14:33N 40°39' W 074°07'3 3.4
2017-Mar-22 13:33N 40°38' W 074°12'6 5.9
2017-Mar-22 12:33N 40°33' W 074°15'3 3.2
2017-Mar-22 11:33N 40°35' W 074°12'5 5.2
2017-Mar-22 10:34N 40°39' W 074°07'3 3.2
2017-Mar-22 09:33N 40°39' W 074°03'2 1.6
2017-Mar-22 08:34N 40°40' W 074°03'6 5.9
2017-Mar-22 07:34N 40°45' W 073°58'6 6.1
2017-Mar-22 06:33N 40°48' W 073°51'4 0.2
2017-Mar-21 10:31N 40°50' W 073°46'6 6.4
2017-Mar-21 09:33N 40°48' W 073°54'8 7.7
2017-Mar-21 08:33N 40°42' W 074°00'8 7.9
2017-Mar-21 07:33N 40°39' W 074°09'7 6.9
2017-Mar-21 06:29N 40°33' W 074°15'0 0.3
2017-Mar-21 05:30N 40°33' W 074°15'0 0.0
2017-Mar-21 02:33N 40°33' W 074°15'3 2.7
2017-Mar-21 01:22N 40°35' W 074°12'0 0.0
2017-Mar-21 00:24N 40°35' W 074°12'3 4.1
2017-Mar-20 23:33N 40°33' W 074°15'0 0.2
2017-Mar-20 22:33N 40°33' W 074°15'0 0.1
2017-Mar-20 21:30N 40°33' W 074°15'0 0.1
2017-Mar-20 19:25N 40°33' W 074°15'  
2017-Mar-18 08:28N 40°32' W 074°15'8 8.5
2017-Mar-18 07:33N 40°39' W 074°10'8 7.7
2017-Mar-18 06:33N 40°41' W 074°00'0 0.1
2017-Mar-18 05:33N 40°41' W 074°00'0 0.1
2017-Mar-18 04:33N 40°41' W 074°00'0 0.0
2017-Mar-18 03:33N 40°41' W 074°00'0 0.0
2017-Mar-18 02:33N 40°41' W 074°00'6 5.8
2017-Mar-18 01:33N 40°39' W 074°07'0 0.2
2017-Mar-18 00:33N 40°39' W 074°07'0 0.0
2017-Mar-17 23:33N 40°39' W 074°07'0 0.0
2017-Mar-17 22:33N 40°39' W 074°07'0 0.0
2017-Mar-17 21:33N 40°39' W 074°07'0 0.1
2017-Mar-17 20:33N 40°39' W 074°07'4 3.9
2017-Mar-17 19:33N 40°40' W 074°02'3 2.9
2017-Mar-17 18:33N 40°42' W 073°60'7 7.3
2017-Mar-17 17:33N 40°48' W 073°54'7 6.5
2017-Mar-17 16:31N 40°51' W 073°46'46 5.6
2017-Mar-17 08:23N 41°07' W 072°49'5 5.8
2017-Mar-17 07:33N 41°07' W 072°43'7 7.0
2017-Mar-17 06:33N 41°09' W 072°33'9 9.1
2017-Mar-17 05:33N 41°11' W 072°22'1010.2
2017-Mar-17 04:33N 41°14' W 072°09'90 6.4
2017-Mar-16 14:33N 42°16' W 070°41'9 9.4
2017-Mar-16 13:33N 42°22' W 070°50'7 6.7
2017-Mar-16 12:34N 42°20' W 070°59'1 0.7
2017-Mar-16 11:33N 42°21' W 070°58'0 0.0
2017-Mar-16 10:33N 42°21' W 070°58'0 0.0
2017-Mar-16 09:33N 42°21' W 070°58'0 0.0
2017-Mar-16 08:33N 42°21' W 070°58'0 0.0
2017-Mar-16 07:33N 42°21' W 070°58'0 0.0
2017-Mar-16 06:33N 42°21' W 070°58'0 0.0
2017-Mar-16 05:33N 42°21' W 070°58'0 0.0
2017-Mar-16 04:33N 42°21' W 070°58'0 0.0
2017-Mar-16 03:33N 42°21' W 070°58'0 0.0
2017-Mar-16 02:33N 42°21' W 070°58'0 0.0
2017-Mar-16 01:33N 42°21' W 070°58'0 0.0
2017-Mar-16 00:33N 42°21' W 070°58'0 0.0
2017-Mar-15 23:33N 42°21' W 070°58'0 0.1
2017-Mar-15 22:33N 42°21' W 070°58'4 4.0
2017-Mar-15 21:33N 42°22' W 071°03'2 2.3
2017-Mar-15 20:33N 42°24' W 071°01'0 0.0
2017-Mar-15 19:33N 42°24' W 071°01'0 0.0
2017-Mar-15 18:33N 42°24' W 071°01'0 0.0
2017-Mar-15 17:33N 42°24' W 071°01'0 0.0
2017-Mar-15 16:33N 42°24' W 071°01'0 0.0
2017-Mar-15 15:33N 42°24' W 071°01'0 0.0
2017-Mar-15 14:33N 42°24' W 071°01'0 0.0
2017-Mar-15 13:33N 42°24' W 071°01'0 0.0
2017-Mar-15 12:33N 42°24' W 071°01'0 0.0
2017-Mar-15 11:33N 42°24' W 071°01'0 0.0
2017-Mar-15 10:33N 42°24' W 071°01'0 0.0
2017-Mar-15 09:33N 42°24' W 071°01'0 0.0
2017-Mar-15 08:33N 42°24' W 071°01'0 0.0
2017-Mar-15 07:33N 42°24' W 071°01'0 0.0
2017-Mar-15 06:33N 42°24' W 071°01'0 0.0
2017-Mar-15 05:33N 42°24' W 071°01'0 0.0
2017-Mar-15 04:33N 42°24' W 071°01'0 0.0
2017-Mar-15 03:25N 42°24' W 071°01'0 0.0
2017-Mar-15 02:33N 42°24' W 071°01'0 0.0
2017-Mar-15 01:33N 42°24' W 071°01'0 0.0
2017-Mar-15 00:33N 42°24' W 071°01'0 0.0
2017-Mar-14 23:33N 42°24' W 071°01'0 0.0
2017-Mar-14 22:33N 42°24' W 071°01'0 0.0
2017-Mar-14 21:33N 42°24' W 071°01'0 0.0
2017-Mar-14 20:33N 42°24' W 071°01'0 0.0
2017-Mar-14 19:32N 42°24' W 071°01'0 0.0
2017-Mar-14 18:33N 42°24' W 071°01'0 0.0
2017-Mar-14 17:33N 42°24' W 071°01'0 0.0
2017-Mar-14 16:33N 42°24' W 071°01'0 0.0
2017-Mar-14 15:33N 42°24' W 071°01'0 0.0
2017-Mar-14 14:33N 42°24' W 071°01'0 0.0
2017-Mar-14 13:33N 42°24' W 071°01'0 0.0
2017-Mar-14 12:33N 42°24' W 071°01'0 0.0
2017-Mar-14 11:33N 42°24' W 071°01'0 0.0
2017-Mar-14 10:33N 42°24' W 071°01'0 0.0
2017-Mar-14 09:33N 42°24' W 071°01'0 0.0
2017-Mar-14 08:33N 42°24' W 071°01'0 0.0
2017-Mar-14 07:33N 42°24' W 071°01'0 0.0
2017-Mar-14 06:33N 42°24' W 071°01'  

Dump ship's entire track history